Time;durP1;ratioP1;P1;durP2;ratioP2;P2;SDS_P1;SDS_P2;PMS_P1;PMS_P2;Temp;Humidity;BMP_temperature;BMP_pressure;BME280_temperature;BME280_humidity;BME280_pressure;Samples;Min_cycle;Max_cycle;Signal;HPM_P1;HPM_P2
2023/05/14 00:01:32;;;;;;;41.20;21.90;;;11.40;99.90;;;;;;7594072;19;20798;-72
2023/05/14 00:04:04;;;;;;;42.42;22.75;;;11.40;99.90;;;;;;7584803;19;20019;-73
2023/05/14 00:06:37;;;;;;;41.92;21.73;;;11.40;99.90;;;;;;7591404;19;20010;-72
2023/05/14 00:09:10;;;;;;;40.47;22.90;;;11.40;99.90;;;;;;7589250;19;20134;-72
2023/05/14 00:11:42;;;;;;;42.95;24.00;;;11.50;99.90;;;;;;7591859;19;20400;-73
2023/05/14 00:14:14;;;;;;;40.92;24.15;;;11.50;99.90;;;;;;7590268;19;20025;-71
2023/05/14 00:16:47;;;;;;;40.37;22.80;;;11.40;99.90;;;;;;7595055;19;20022;-71
2023/05/14 00:19:19;;;;;;;44.50;24.55;;;11.40;99.90;;;;;;7593257;19;20074;-72
2023/05/14 00:21:51;;;;;;;44.15;25.27;;;11.40;99.90;;;;;;7588425;19;21011;-72
2023/05/14 00:24:24;;;;;;;48.13;26.33;;;11.40;99.90;;;;;;7594198;19;20033;-72
2023/05/14 00:26:56;;;;;;;47.70;26.67;;;11.40;99.90;;;;;;7588178;19;20858;-71
2023/05/14 00:29:28;;;;;;;51.60;26.63;;;11.30;99.90;;;;;;7592966;19;20023;-71
2023/05/14 00:32:02;;;;;;;47.47;27.13;;;11.30;99.90;;;;;;7594655;19;20030;-73
2023/05/14 00:34:34;;;;;;;47.97;26.77;;;11.30;99.90;;;;;;7603607;19;20022;-72
2023/05/14 00:37:07;;;;;;;47.20;25.60;;;11.30;99.90;;;;;;7595002;19;20022;-72
2023/05/14 00:39:40;;;;;;;49.80;27.42;;;11.30;99.90;;;;;;7600890;19;20062;-71
2023/05/14 00:42:12;;;;;;;47.80;26.10;;;11.30;99.90;;;;;;7592872;19;20094;-73
2023/05/14 00:44:44;;;;;;;44.33;26.60;;;11.30;99.90;;;;;;7592212;19;20034;-72
2023/05/14 00:47:17;;;;;;;53.30;27.95;;;11.40;99.90;;;;;;7596477;19;20038;-72
2023/05/14 00:49:49;;;;;;;48.63;27.23;;;11.40;99.90;;;;;;7594187;19;20098;-73
2023/05/14 00:52:22;;;;;;;50.15;27.90;;;11.30;99.90;;;;;;7600672;19;20276;-72
2023/05/14 00:54:54;;;;;;;49.85;25.67;;;11.30;99.90;;;;;;7593063;19;20644;-72
2023/05/14 00:57:27;;;;;;;46.43;24.27;;;11.30;99.90;;;;;;7584013;19;20818;-71
2023/05/14 01:00:00;;;;;;;46.63;25.77;;;11.40;99.90;;;;;;7596195;19;20271;-72
2023/05/14 01:02:32;;;;;;;48.63;26.67;;;11.30;99.90;;;;;;7602032;19;20057;-71
2023/05/14 01:05:06;;;;;;;52.50;25.77;;;11.30;99.90;;;;;;7595045;19;20043;-72
2023/05/14 01:07:57;;;;;;;48.80;26.38;;;11.40;99.90;;;;;;7600381;19;20482;-71
2023/05/14 01:10:44;;;;;;;44.80;24.75;;;11.30;99.90;;;;;;7599512;19;20101;-72
2023/05/14 01:13:36;;;;;;;43.25;24.45;;;11.30;99.90;;;;;;7592976;19;20022;-71
2023/05/14 01:16:12;;;;;;;46.22;25.17;;;11.30;99.90;;;;;;7594101;19;20374;-72
2023/05/14 01:18:47;;;;;;;43.55;24.77;;;11.30;99.90;;;;;;7595268;19;20025;-72
2023/05/14 01:21:36;;;;;;;43.35;23.73;;;11.30;99.90;;;;;;7594632;19;20010;-72
2023/05/14 01:24:09;;;;;;;47.78;25.25;;;11.30;99.90;;;;;;7595266;19;20036;-71
2023/05/14 01:26:41;;;;;;;46.20;25.40;;;11.30;99.90;;;;;;7595729;19;20636;-71
2023/05/14 01:29:22;;;;;;;43.90;23.38;;;11.30;99.90;;;;;;7594448;19;20108;-71
2023/05/14 01:31:59;;;;;;;44.88;25.02;;;11.20;99.90;;;;;;7598248;19;20021;-73
2023/05/14 01:34:34;;;;;;;44.85;25.27;;;11.20;99.90;;;;;;7593100;19;21082;-72
2023/05/14 01:37:09;;;;;;;39.03;23.23;;;11.20;99.90;;;;;;7595055;19;20018;-72
2023/05/14 01:39:42;;;;;;;38.00;20.75;;;11.20;99.90;;;;;;7598833;19;20021;-72
2023/05/14 01:42:14;;;;;;;41.38;21.98;;;11.20;99.90;;;;;;7573713;19;20022;-72
2023/05/14 01:44:47;;;;;;;47.03;24.08;;;11.20;99.90;;;;;;7600923;19;20090;-72
2023/05/14 01:47:19;;;;;;;42.03;23.33;;;11.20;99.90;;;;;;7593581;19;20025;-72
2023/05/14 01:49:52;;;;;;;45.65;23.38;;;11.20;99.90;;;;;;7597471;19;20495;-71
2023/05/14 01:52:25;;;;;;;40.60;24.10;;;11.20;99.90;;;;;;7595705;19;20774;-72
2023/05/14 01:54:58;;;;;;;39.30;21.55;;;11.20;99.90;;;;;;7606131;19;20015;-72
2023/05/14 01:57:31;;;;;;;45.78;24.02;;;11.10;99.90;;;;;;7598495;19;20011;-72
2023/05/14 02:00:04;;;;;;;44.20;23.30;;;11.10;99.90;;;;;;7600761;19;20100;-71
2023/05/14 02:02:45;;;;;;;42.25;23.60;;;11.10;99.90;;;;;;7603130;19;20015;-71
2023/05/14 02:05:18;;;;;;;45.80;23.80;;;11.10;99.90;;;;;;7593521;19;20057;-72
2023/05/14 02:07:50;;;;;;;44.33;23.88;;;11.10;99.90;;;;;;7601965;19;20018;-73
2023/05/14 02:10:23;;;;;;;40.28;22.58;;;11.00;99.90;;;;;;7593190;19;20025;-73
2023/05/14 02:12:55;;;;;;;46.73;23.50;;;11.00;99.90;;;;;;7602538;19;20018;-73
2023/05/14 02:15:28;;;;;;;53.35;24.98;;;11.00;99.90;;;;;;7591394;19;20799;-73
2023/05/14 02:18:00;;;;;;;41.17;23.10;;;11.00;99.90;;;;;;7581729;19;20017;-73
2023/05/14 02:20:33;;;;;;;45.90;24.88;;;11.00;99.90;;;;;;7588885;19;20279;-73
2023/05/14 02:23:06;;;;;;;44.55;23.88;;;10.90;99.90;;;;;;7585295;19;20053;-73
2023/05/14 02:25:38;;;;;;;45.97;24.40;;;10.90;99.90;;;;;;7579424;19;20021;-72
2023/05/14 02:28:10;;;;;;;44.20;23.92;;;10.90;99.90;;;;;;7590871;19;20019;-74
2023/05/14 02:30:43;;;;;;;43.13;24.13;;;10.90;99.90;;;;;;7597808;19;20018;-73
2023/05/14 02:33:15;;;;;;;39.97;23.20;;;10.90;99.90;;;;;;7588478;19;20018;-73
2023/05/14 02:35:47;;;;;;;47.75;24.77;;;10.80;99.90;;;;;;7585154;19;20026;-72
2023/05/14 02:38:21;;;;;;;46.00;25.03;;;10.80;99.90;;;;;;7589929;19;20545;-73
2023/05/14 02:40:53;;;;;;;41.70;24.20;;;10.80;99.90;;;;;;7588208;19;20019;-72
2023/05/14 02:43:25;;;;;;;46.72;25.13;;;10.80;99.90;;;;;;7573015;19;20132;-72
2023/05/14 02:45:57;;;;;;;49.67;26.38;;;10.70;99.90;;;;;;7558438;19;20018;-74
2023/05/14 02:48:30;;;;;;;51.83;26.57;;;10.70;99.90;;;;;;7581719;19;20021;-72
2023/05/14 02:51:02;;;;;;;58.60;26.48;;;10.70;99.90;;;;;;7569449;19;20021;-73
2023/05/14 02:53:35;;;;;;;56.78;27.35;;;10.70;99.90;;;;;;7578497;19;20060;-72
2023/05/14 02:56:07;;;;;;;50.58;26.48;;;10.70;99.90;;;;;;7570187;19;20018;-73
2023/05/14 02:58:39;;;;;;;60.88;29.23;;;10.70;99.90;;;;;;7589865;19;20018;-74
2023/05/14 03:01:12;;;;;;;50.83;26.90;;;10.70;99.90;;;;;;7581101;19;20021;-74
2023/05/14 03:03:45;;;;;;;51.63;26.80;;;10.70;99.90;;;;;;7592495;19;20023;-74
2023/05/14 03:06:18;;;;;;;64.57;30.50;;;10.70;99.90;;;;;;7594946;19;20014;-74
2023/05/14 03:08:50;;;;;;;63.22;30.75;;;10.70;99.90;;;;;;7594841;19;20018;-74
2023/05/14 03:11:23;;;;;;;71.93;32.13;;;10.60;99.90;;;;;;7565593;19;20055;-73
2023/05/14 03:13:55;;;;;;;62.15;30.48;;;10.60;99.90;;;;;;7592058;19;20028;-73
2023/05/14 03:16:27;;;;;;;70.05;31.20;;;10.60;99.90;;;;;;7588266;19;20019;-74
2023/05/14 03:19:01;;;;;;;62.80;30.53;;;10.70;99.90;;;;;;7594783;19;20011;-73
2023/05/14 03:21:33;;;;;;;67.32;31.67;;;10.70;99.90;;;;;;7592016;19;21098;-73
2023/05/14 03:24:06;;;;;;;62.78;31.45;;;10.70;99.90;;;;;;7587900;19;20014;-74
2023/05/14 03:26:38;;;;;;;64.53;30.40;;;10.70;99.90;;;;;;7588597;19;20026;-73
2023/05/14 03:29:11;;;;;;;61.13;30.33;;;10.60;99.90;;;;;;7592222;19;20014;-74
2023/05/14 03:31:44;;;;;;;67.25;32.97;;;10.60;99.90;;;;;;7599212;19;20022;-73
2023/05/14 03:34:17;;;;;;;67.32;33.05;;;10.70;99.90;;;;;;7587873;19;20049;-74
2023/05/14 03:36:49;;;;;;;62.63;31.70;;;10.70;99.90;;;;;;7586522;19;20124;-74
2023/05/14 03:39:22;;;;;;;69.82;31.80;;;10.60;99.90;;;;;;7582254;19;20286;-73
2023/05/14 03:41:56;;;;;;;79.18;34.08;;;10.60;99.90;;;;;;7598138;19;20022;-73
2023/05/14 03:44:28;;;;;;;;;;;10.60;99.90;;;;;;7593671;19;20022;-74
2023/05/14 03:47:00;;;;;;;67.07;31.92;;;10.50;99.90;;;;;;7589125;19;20018;-74
2023/05/14 03:49:32;;;;;;;73.35;32.17;;;10.60;99.90;;;;;;7585484;19;20010;-73
2023/05/14 03:52:04;;;;;;;73.40;31.92;;;10.60;99.90;;;;;;7594846;19;20014;-73
2023/05/14 03:54:37;;;;;;;66.85;32.28;;;10.60;99.90;;;;;;7592946;19;20964;-74
2023/05/14 03:57:09;;;;;;;73.00;33.85;;;10.60;99.90;;;;;;7576835;19;20014;-74
2023/05/14 03:59:42;;;;;;;77.32;34.67;;;10.60;99.90;;;;;;7595118;19;20010;-74
2023/05/14 04:02:14;;;;;;;69.47;33.58;;;10.50;99.90;;;;;;7590483;19;20010;-73
2023/05/14 04:04:47;;;;;;;62.88;31.88;;;10.50;99.90;;;;;;7571828;19;20022;-74
2023/05/14 04:07:22;;;;;;;73.80;33.80;;;10.50;99.90;;;;;;7602939;19;20093;-73
2023/05/14 04:09:58;;;;;;;78.78;34.45;;;10.50;99.90;;;;;;7606651;19;20010;-73
2023/05/14 04:12:33;;;;;;;83.85;34.97;;;10.50;99.90;;;;;;7596325;19;21362;-73
2023/05/14 04:15:07;;;;;;;83.10;36.63;;;10.50;99.90;;;;;;7611005;19;21256;-73
2023/05/14 04:17:39;;;;;;;81.03;35.13;;;10.50;99.90;;;;;;7609147;19;20029;-74
2023/05/14 04:20:12;;;;;;;79.03;33.78;;;10.40;99.90;;;;;;7604377;19;20585;-73
2023/05/14 04:22:44;;;;;;;76.70;35.80;;;10.40;99.90;;;;;;7611441;19;20768;-73
2023/05/14 04:25:17;;;;;;;84.53;36.17;;;10.40;99.90;;;;;;7606455;19;20043;-74
2023/05/14 04:27:49;;;;;;;77.38;36.25;;;10.40;99.90;;;;;;7611771;19;20094;-74
2023/05/14 04:30:22;;;;;;;80.45;35.60;;;10.40;99.90;;;;;;7605070;19;20017;-74
2023/05/14 04:32:54;;;;;;;87.22;35.58;;;10.40;99.90;;;;;;7607477;19;20018;-74
2023/05/14 04:35:27;;;;;;;84.80;37.15;;;10.40;99.90;;;;;;7599094;19;20039;-73
2023/05/14 04:37:59;;;;;;;91.13;36.37;;;10.40;99.90;;;;;;7610350;19;20015;-73
2023/05/14 04:40:32;;;;;;;87.45;38.03;;;10.30;99.90;;;;;;7607485;19;20088;-73
2023/05/14 04:43:05;;;;;;;78.35;35.17;;;10.30;99.90;;;;;;7612973;19;20022;-73
2023/05/14 04:45:37;;;;;;;85.40;36.40;;;10.40;99.90;;;;;;7608202;19;20024;-73
2023/05/14 04:48:09;;;;;;;74.72;35.33;;;10.40;99.90;;;;;;7612657;19;20045;-72
2023/05/14 04:50:43;;;;;;;103.53;38.00;;;10.40;99.90;;;;;;7600466;19;20499;-73
2023/05/14 04:53:15;;;;;;;95.45;38.35;;;10.40;99.90;;;;;;7611022;19;20023;-72
2023/05/14 04:55:47;;;;;;;100.60;39.22;;;10.40;99.90;;;;;;7606932;19;20055;-74
2023/05/14 04:58:22;;;;;;;80.40;34.08;;;10.40;99.90;;;;;;7608322;19;20077;-73
2023/05/14 05:00:54;;;;;;;98.07;37.08;;;10.40;99.90;;;;;;7610662;19;20018;-71
2023/05/14 05:03:26;;;;;;;100.22;39.22;;;10.40;99.90;;;;;;7611179;19;20029;-73
2023/05/14 05:05:59;;;;;;;90.43;38.55;;;10.30;99.90;;;;;;7600061;19;20654;-74
2023/05/14 05:08:31;;;;;;;99.97;39.10;;;10.30;99.90;;;;;;7610890;19;20029;-74
2023/05/14 05:11:04;;;;;;;91.97;38.47;;;10.30;99.90;;;;;;7597408;19;20015;-73
2023/05/14 05:13:36;;;;;;;105.68;39.67;;;10.30;99.90;;;;;;7607977;19;20026;-73
2023/05/14 05:16:08;;;;;;;91.45;38.83;;;10.20;99.90;;;;;;7600200;19;20018;-73
2023/05/14 05:18:43;;;;;;;117.45;40.13;;;10.30;99.90;;;;;;7606605;19;20045;-73
2023/05/14 05:21:15;;;;;;;103.47;39.47;;;10.30;99.90;;;;;;7594353;19;20039;-73
2023/05/14 05:23:48;;;;;;;98.20;37.85;;;10.30;99.90;;;;;;7588668;19;20672;-74
2023/05/14 05:26:21;;;;;;;103.15;38.53;;;10.30;99.90;;;;;;7598619;19;20018;-73
2023/05/14 05:28:53;;;;;;;91.50;39.08;;;10.30;99.90;;;;;;7605923;19;20557;-73
2023/05/14 05:31:25;;;;;;;102.82;38.65;;;10.30;99.90;;;;;;7600225;19;20026;-74
2023/05/14 05:33:59;;;;;;;98.43;38.10;;;10.40;99.90;;;;;;7600290;19;20015;-73
2023/05/14 05:36:31;;;;;;;90.43;35.40;;;10.40;99.90;;;;;;7596880;19;21276;-74
2023/05/14 05:39:03;;;;;;;77.60;35.45;;;10.40;99.90;;;;;;7604502;19;20022;-73
2023/05/14 05:41:36;;;;;;;92.63;38.35;;;10.50;99.90;;;;;;7597941;19;20018;-73
2023/05/14 05:44:08;;;;;;;91.80;38.13;;;10.50;99.90;;;;;;7600654;19;20018;-73
2023/05/14 05:46:40;;;;;;;87.20;37.50;;;10.50;99.90;;;;;;7597847;19;20011;-73
2023/05/14 05:49:12;;;;;;;90.72;38.70;;;10.50;99.90;;;;;;7591878;19;20030;-72
2023/05/14 05:51:45;;;;;;;93.20;38.87;;;10.50;99.90;;;;;;7563438;19;20014;-71
2023/05/14 05:54:18;;;;;;;83.23;36.20;;;10.50;99.90;;;;;;7580630;19;20022;-73
2023/05/14 05:56:51;;;;;;;96.63;37.25;;;10.50;99.90;;;;;;7592763;19;20018;-73
2023/05/14 05:59:23;;;;;;;89.72;37.20;;;10.60;99.90;;;;;;7601321;19;20022;-74
2023/05/14 06:01:56;;;;;;;85.25;39.50;;;10.60;99.90;;;;;;7599180;19;20648;-73
2023/05/14 06:04:28;;;;;;;86.55;39.58;;;10.60;99.90;;;;;;7594925;19;20864;-72
2023/05/14 06:07:00;;;;;;;105.68;44.88;;;10.60;99.90;;;;;;7591690;19;20018;-73
2023/05/14 06:09:33;;;;;;;133.23;65.63;;;10.70;99.90;;;;;;7588444;19;20065;-73
2023/05/14 06:12:06;;;;;;;98.57;48.47;;;10.70;99.90;;;;;;7602225;19;20021;-73
2023/05/14 06:14:38;;;;;;;97.28;39.58;;;10.70;99.90;;;;;;7586392;19;20294;-73
2023/05/14 06:17:10;;;;;;;98.45;41.38;;;10.70;99.90;;;;;;7598601;19;20011;-73
2023/05/14 06:19:42;;;;;;;81.32;36.95;;;10.70;99.90;;;;;;7591953;19;20527;-73
2023/05/14 06:22:15;;;;;;;94.38;39.72;;;10.80;99.90;;;;;;7604765;19;20019;-73
2023/05/14 06:24:48;;;;;;;89.22;37.60;;;10.70;99.90;;;;;;7594787;19;20018;-73
2023/05/14 06:27:20;;;;;;;88.47;36.50;;;10.80;99.90;;;;;;7599792;19;20553;-72
2023/05/14 06:29:53;;;;;;;77.40;34.25;;;10.80;99.90;;;;;;7598161;19;20018;-73
2023/05/14 06:32:25;;;;;;;72.22;33.45;;;10.80;99.90;;;;;;7599542;19;20028;-72
2023/05/14 06:34:57;;;;;;;74.43;33.38;;;10.80;99.90;;;;;;7566551;19;20529;-71
2023/05/14 06:37:30;;;;;;;66.75;30.27;;;10.90;99.90;;;;;;7583768;19;20018;-72
2023/05/14 06:40:02;;;;;;;72.60;32.30;;;10.90;99.90;;;;;;7598351;19;20999;-71
2023/05/14 06:42:35;;;;;;;64.43;30.40;;;11.00;99.90;;;;;;7597004;19;20097;-73
2023/05/14 06:45:09;;;;;;;64.32;29.27;;;10.90;99.90;;;;;;7598027;19;20030;-72
2023/05/14 06:47:41;;;;;;;60.63;29.38;;;11.00;99.90;;;;;;7595712;19;20049;-71
2023/05/14 06:50:14;;;;;;;56.37;28.33;;;10.90;99.90;;;;;;7598418;19;20014;-73
2023/05/14 06:52:47;;;;;;;58.55;27.35;;;11.00;99.90;;;;;;7591410;19;20300;-72
2023/05/14 06:55:19;;;;;;;57.05;27.27;;;11.00;99.90;;;;;;7580268;19;20025;-73
2023/05/14 06:57:51;;;;;;;53.87;27.60;;;10.90;99.90;;;;;;7590331;19;20656;-72
2023/05/14 07:00:24;;;;;;;122.38;68.15;;;11.00;99.90;;;;;;7584396;19;20057;-72
2023/05/14 07:02:57;;;;;;;60.40;30.95;;;11.00;99.90;;;;;;7602217;19;20146;-72
2023/05/14 07:05:29;;;;;;;63.60;31.58;;;11.00;99.90;;;;;;7584713;19;20022;-73
2023/05/14 07:08:02;;;;;;;58.03;29.83;;;11.10;99.90;;;;;;7595357;19;20793;-73
2023/05/14 07:10:34;;;;;;;56.70;27.83;;;11.20;99.90;;;;;;7591190;19;20600;-71
2023/05/14 07:13:07;;;;;;;50.17;26.40;;;11.20;99.90;;;;;;7599127;19;21171;-73
2023/05/14 07:15:39;;;;;;;58.13;26.45;;;11.20;99.90;;;;;;7585217;19;20022;-72
2023/05/14 07:18:12;;;;;;;53.65;27.73;;;11.30;99.90;;;;;;7595006;19;20021;-72
2023/05/14 07:20:44;;;;;;;61.95;29.08;;;11.30;99.90;;;;;;7584417;19;20578;-71
2023/05/14 07:23:16;;;;;;;61.38;32.25;;;11.30;99.90;;;;;;7595594;19;20706;-72
2023/05/14 07:25:51;;;;;;;64.18;29.88;;;11.40;99.90;;;;;;7584806;19;20039;-72
2023/05/14 07:28:23;;;;;;;59.05;27.85;;;11.40;99.90;;;;;;7590094;19;20033;-72
2023/05/14 07:30:56;;;;;;;59.47;28.13;;;11.40;99.90;;;;;;7569938;19;20018;-71
2023/05/14 07:33:28;;;;;;;66.65;30.83;;;11.50;99.90;;;;;;7582312;19;20025;-72
2023/05/14 07:36:01;;;;;;;53.58;28.05;;;11.50;99.90;;;;;;7536013;19;20730;-71
2023/05/14 07:38:34;;;;;;;52.75;28.35;;;11.60;99.90;;;;;;7581313;19;20010;-72
2023/05/14 07:41:11;;;;;;;53.95;27.13;;;11.70;99.90;;;;;;7552914;19;20018;-71
2023/05/14 07:43:43;;;;;;;54.45;27.25;;;11.80;99.90;;;;;;7569394;19;20030;-71
2023/05/14 07:46:15;;;;;;;53.85;26.42;;;11.80;99.90;;;;;;7543028;19;20019;-73
2023/05/14 07:48:48;;;;;;;56.45;28.13;;;11.80;99.90;;;;;;7562873;19;20496;-72
2023/05/14 07:51:20;;;;;;;55.10;26.48;;;11.90;99.90;;;;;;7550120;19;20182;-73
2023/05/14 07:53:54;;;;;;;46.30;26.48;;;11.90;99.90;;;;;;7537550;19;20709;-74
2023/05/14 07:56:26;;;;;;;56.58;29.13;;;11.90;99.90;;;;;;7535388;19;20736;-74
2023/05/14 07:58:59;;;;;;;60.28;30.95;;;11.90;99.90;;;;;;7570059;19;20018;-72
2023/05/14 08:01:32;;;;;;;55.05;26.75;;;11.90;99.90;;;;;;7570543;19;20031;-72
2023/05/14 08:04:04;;;;;;;59.22;30.42;;;11.90;99.90;;;;;;7565842;19;20021;-75
2023/05/14 08:06:36;;;;;;;50.58;24.77;;;11.80;99.90;;;;;;7575617;19;20018;-72
2023/05/14 08:09:09;;;;;;;46.92;23.10;;;11.80;99.90;;;;;;7576701;19;21087;-73
2023/05/14 08:11:41;;;;;;;48.85;24.67;;;11.80;99.90;;;;;;7541653;19;20017;-76
2023/05/14 08:14:13;;;;;;;51.67;25.20;;;11.70;99.90;;;;;;7570587;19;20049;-76
2023/05/14 08:16:46;;;;;;;55.72;28.42;;;11.70;99.90;;;;;;7566818;19;20043;-76
2023/05/14 08:19:19;;;;;;;47.10;24.08;;;11.70;99.90;;;;;;7569761;19;20104;-73
2023/05/14 08:21:51;;;;;;;45.60;23.40;;;11.60;99.90;;;;;;7564605;19;20019;-74
2023/05/14 08:24:27;;;;;;;40.25;21.55;;;11.60;99.90;;;;;;7559583;19;20019;-74
2023/05/14 08:26:59;;;;;;;44.17;22.95;;;11.70;99.90;;;;;;7567994;19;21782;-73
2023/05/14 08:29:31;;;;;;;45.13;23.30;;;11.70;99.90;;;;;;7582819;19;20025;-72
2023/05/14 08:32:04;;;;;;;41.45;21.70;;;11.80;99.90;;;;;;7574807;19;20515;-72
2023/05/14 08:34:53;;;;;;;48.65;25.02;;;11.80;99.90;;;;;;7574718;19;20126;-72
2023/05/14 08:37:26;;;;;;;75.03;35.55;;;11.80;99.90;;;;;;7556485;19;20022;-73
2023/05/14 08:39:58;;;;;;;52.50;25.83;;;11.80;99.90;;;;;;7577779;19;20014;-72
2023/05/14 08:42:31;;;;;;;46.53;25.38;;;11.80;99.90;;;;;;7585892;19;20018;-71
2023/05/14 08:45:05;;;;;;;52.38;27.00;;;11.80;99.90;;;;;;7590090;19;20011;-75
2023/05/14 08:47:38;;;;;;;51.08;27.00;;;11.90;99.90;;;;;;7586844;19;20014;-75
2023/05/14 08:50:11;;;;;;;58.75;29.23;;;12.00;99.90;;;;;;7587291;19;20051;-75
2023/05/14 08:52:44;;;;;;;56.53;30.20;;;11.90;99.90;;;;;;7574220;19;20014;-75
2023/05/14 08:55:17;;;;;;;43.70;22.23;;;11.90;99.90;;;;;;7573992;19;20015;-76
2023/05/14 08:57:49;;;;;;;42.60;22.60;;;11.90;99.90;;;;;;7601784;19;20643;-76
2023/05/14 09:00:23;;;;;;;50.25;24.88;;;11.90;99.90;;;;;;7613189;19;20562;-76
2023/05/14 09:02:56;;;;;;;45.33;25.00;;;11.90;99.90;;;;;;7597040;19;20014;-72
2023/05/14 09:05:29;;;;;;;53.35;28.55;;;12.00;99.90;;;;;;7606567;19;20382;-73
2023/05/14 09:08:02;;;;;;;62.35;34.65;;;12.10;99.90;;;;;;7592365;19;20049;-73
2023/05/14 09:10:34;;;;;;;42.28;24.38;;;12.20;99.90;;;;;;7603640;19;20093;-74
2023/05/14 09:13:08;;;;;;;63.22;36.70;;;12.40;99.90;;;;;;7601483;19;20010;-73
2023/05/14 09:15:41;;;;;;;63.10;35.42;;;12.30;99.90;;;;;;7596718;19;20049;-71
2023/05/14 09:18:13;;;;;;;57.67;32.38;;;12.30;99.90;;;;;;7587428;19;20018;-73
2023/05/14 09:20:46;;;;;;;37.20;21.88;;;12.30;99.90;;;;;;7591934;19;20021;-73
2023/05/14 09:23:19;;;;;;;64.60;37.20;;;12.30;99.90;;;;;;7602795;19;20065;-73
2023/05/14 09:25:51;;;;;;;61.25;35.75;;;12.20;99.90;;;;;;7593493;19;20033;-70
2023/05/14 09:28:26;;;;;;;42.05;24.83;;;12.20;99.90;;;;;;7584277;19;21108;-72
2023/05/14 09:31:00;;;;;;;41.67;22.95;;;12.20;99.90;;;;;;7592853;19;20144;-72
2023/05/14 09:33:33;;;;;;;35.72;20.67;;;12.20;99.90;;;;;;7595927;19;20029;-72
2023/05/14 09:36:07;;;;;;;;;;;12.30;99.90;;;;;;7596682;19;20506;-72
2023/05/14 09:38:40;;;;;;;29.77;17.75;;;12.30;99.90;;;;;;7602294;19;19923;-72
2023/05/14 09:41:12;;;;;;;37.83;22.38;;;12.20;99.90;;;;;;7570612;19;20551;-75
2023/05/14 09:43:44;;;;;;;34.35;18.77;;;12.20;99.90;;;;;;7584321;19;20041;-75
2023/05/14 09:46:20;;;;;;;31.33;18.63;;;12.20;99.90;;;;;;7598007;19;20010;-74
2023/05/14 09:48:55;;;;;;;27.45;16.63;;;12.20;99.90;;;;;;7602360;19;20381;-73
2023/05/14 09:51:31;;;;;;;30.23;17.80;;;12.20;99.90;;;;;;7586122;19;20042;-76
2023/05/14 09:54:05;;;;;;;26.80;15.98;;;12.20;99.90;;;;;;7572520;19;20082;-74
2023/05/14 09:56:38;;;;;;;25.15;16.17;;;12.20;99.90;;;;;;7572117;19;20022;-71
2023/05/14 09:59:11;;;;;;;27.48;16.45;;;12.10;99.90;;;;;;7589254;19;20022;-72
2023/05/14 10:01:43;;;;;;;28.65;16.13;;;12.10;99.90;;;;;;7578745;19;20704;-71
2023/05/14 10:04:16;;;;;;;31.83;16.80;;;12.10;99.90;;;;;;7583480;19;20070;-73
2023/05/14 10:06:50;;;;;;;25.58;15.38;;;12.10;99.90;;;;;;7578416;19;20057;-72
2023/05/14 10:09:26;;;;;;;27.80;15.48;;;12.10;99.90;;;;;;7591147;19;20444;-73
2023/05/14 10:12:01;;;;;;;26.17;14.98;;;12.10;99.90;;;;;;7577982;19;20981;-71
2023/05/14 10:14:40;;;;;;;23.08;15.15;;;12.10;99.90;;;;;;7585879;19;20031;-73
2023/05/14 10:17:17;;;;;;;25.92;14.55;;;12.10;99.90;;;;;;7585933;19;20022;-71
2023/05/14 10:19:53;;;;;;;24.50;14.35;;;12.10;99.90;;;;;;7580076;19;20026;-74
2023/05/14 10:22:32;;;;;;;24.27;14.43;;;12.20;99.90;;;;;;7574116;19;20639;-77
2023/05/14 10:25:05;;;;;;;23.20;14.00;;;12.20;99.90;;;;;;7587222;19;20026;-76
2023/05/14 10:27:40;;;;;;;23.20;14.00;;;12.30;99.90;;;;;;7558999;19;21034;-76
2023/05/14 10:30:12;;;;;;;23.88;14.65;;;12.30;99.90;;;;;;7586318;19;25136;-71
2023/05/14 10:32:44;;;;;;;20.80;13.00;;;12.40;99.90;;;;;;7570014;19;21481;-77
2023/05/14 10:35:21;;;;;;;20.13;13.05;;;12.40;99.90;;;;;;7560248;19;20035;-71
2023/05/14 10:37:53;;;;;;;21.27;12.38;;;12.50;99.90;;;;;;7573868;19;20021;-76
2023/05/14 10:40:27;;;;;;;19.73;12.80;;;12.60;99.90;;;;;;7583107;19;20021;-72
2023/05/14 10:42:59;;;;;;;21.67;13.38;;;12.80;99.90;;;;;;7577365;19;20014;-71
2023/05/14 10:45:33;;;;;;;16.85;11.35;;;13.10;99.90;;;;;;7593885;19;20019;-71
2023/05/14 10:48:06;;;;;;;19.25;12.43;;;13.70;99.90;;;;;;7579562;19;20014;-73
2023/05/14 10:50:38;;;;;;;17.08;11.35;;;13.90;99.90;;;;;;7566855;19;20469;-75
2023/05/14 10:53:12;;;;;;;17.77;11.68;;;13.90;99.90;;;;;;7567600;19;20015;-71
2023/05/14 10:55:45;;;;;;;19.90;11.55;;;14.00;99.90;;;;;;7573022;19;20049;-70
2023/05/14 10:58:17;;;;;;;17.97;12.13;;;14.00;99.90;;;;;;7594074;19;20269;-71
2023/05/14 11:00:54;;;;;;;18.27;11.93;;;14.00;99.90;;;;;;7574909;19;20124;-72
2023/05/14 11:03:32;;;;;;;15.75;10.75;;;13.90;99.90;;;;;;7578106;19;20010;-73
2023/05/14 11:06:05;;;;;;;17.17;10.88;;;13.90;99.90;;;;;;7583926;19;20028;-73
2023/05/14 11:08:39;;;;;;;18.75;10.45;;;13.90;99.90;;;;;;7579357;19;20026;-71
2023/05/14 11:11:11;;;;;;;20.05;12.00;;;13.90;99.90;;;;;;7574071;19;20015;-73
2023/05/14 11:13:43;;;;;;;19.33;11.80;;;13.80;99.90;;;;;;7577009;19;21253;-71
2023/05/14 11:16:18;;;;;;;16.27;10.97;;;13.90;99.90;;;;;;7578093;19;20018;-71
2023/05/14 11:19:02;;;;;;;14.85;10.07;;;14.00;99.90;;;;;;7579969;19;20343;-71
2023/05/14 11:21:35;;;;;;;18.73;11.13;;;14.30;99.90;;;;;;7587682;19;20017;-71
2023/05/14 11:24:08;;;;;;;13.68;9.48;;;14.70;99.90;;;;;;7576222;19;20033;-72
2023/05/14 11:26:40;;;;;;;16.30;9.15;;;14.90;99.90;;;;;;7570336;19;20056;-71
2023/05/14 11:29:16;;;;;;;14.38;10.02;;;14.90;99.90;;;;;;7535558;19;21269;-72
2023/05/14 11:31:49;;;;;;;14.77;9.77;;;14.80;99.90;;;;;;7552419;19;20018;-71
2023/05/14 11:34:21;;;;;;;14.98;9.20;;;14.70;99.90;;;;;;7544093;19;20205;-70
2023/05/14 11:36:54;;;;;;;14.65;10.15;;;14.60;99.90;;;;;;7563123;19;20975;-71
2023/05/14 11:39:26;;;;;;;12.80;9.27;;;14.60;99.90;;;;;;7572975;19;20395;-73
2023/05/14 11:42:03;;;;;;;14.07;10.10;;;14.80;99.90;;;;;;7561475;19;20374;-71
2023/05/14 11:44:37;;;;;;;14.10;9.20;;;14.80;99.90;;;;;;7560728;19;20090;-71
2023/05/14 11:47:10;;;;;;;16.08;10.07;;;14.90;99.90;;;;;;7574461;19;20391;-71
2023/05/14 11:49:43;;;;;;;13.82;9.40;;;15.00;99.90;;;;;;7584065;19;20126;-73
2023/05/14 11:52:18;;;;;;;13.32;9.50;;;15.40;99.90;;;;;;7538812;19;20015;-72
2023/05/14 11:54:50;;;;;;;12.93;8.52;;;15.50;99.90;;;;;;7567977;19;20014;-71
2023/05/14 11:57:23;;;;;;;11.45;8.02;;;15.40;99.90;;;;;;7549006;19;20009;-72
2023/05/14 11:59:56;;;;;;;11.00;8.02;;;15.60;99.90;;;;;;7578946;19;20022;-72
2023/05/14 12:02:29;;;;;;;17.90;9.03;;;15.70;99.90;;;;;;7573686;19;20023;-72
2023/05/14 12:05:02;;;;;;;13.35;7.75;;;15.60;99.90;;;;;;7590496;19;20045;-72
2023/05/14 12:07:35;;;;;;;11.80;9.02;;;15.40;99.90;;;;;;7589470;19;20042;-73
2023/05/14 12:10:07;;;;;;;14.63;8.73;;;15.30;99.90;;;;;;7594966;19;20019;-72
2023/05/14 12:12:47;;;;;;;11.43;9.20;;;15.30;99.90;;;;;;7556051;19;20518;-70
2023/05/14 12:15:21;;;;;;;9.85;7.80;;;15.70;99.90;;;;;;7561328;19;20098;-71
2023/05/14 12:17:53;;;;;;;;;;;16.20;99.90;;;;;;7586952;19;20617;-73
2023/05/14 12:20:28;;;;;;;10.93;7.93;;;16.90;99.90;;;;;;7586341;19;19947;-73
2023/05/14 12:23:01;;;;;;;12.18;7.88;;;17.30;99.90;;;;;;7590517;19;20018;-74
2023/05/14 12:25:34;;;;;;;8.48;6.97;;;17.80;98.30;;;;;;7574422;19;20035;-71
2023/05/14 12:28:16;;;;;;;10.27;7.57;;;18.10;95.70;;;;;;7581388;19;20014;-72
2023/05/14 12:30:56;;;;;;;12.02;7.03;;;17.80;91.90;;;;;;7558349;19;20645;-71
2023/05/14 12:33:29;;;;;;;8.65;6.43;;;17.70;92.20;;;;;;7589657;19;20022;-73
2023/05/14 12:36:01;;;;;;;11.23;6.65;;;17.90;93.10;;;;;;7567564;19;20022;-73
2023/05/14 12:39:03;;;;;;;8.10;5.95;;;18.10;91.60;;;;;;7555222;19;20131;-74
2023/05/14 12:41:35;;;;;;;9.07;6.88;;;18.10;90.50;;;;;;7567130;19;20017;-73
2023/05/14 12:44:08;;;;;;;8.07;6.57;;;17.80;90.80;;;;;;7569005;19;20015;-71
2023/05/14 12:46:40;;;;;;;8.55;7.05;;;18.20;90.90;;;;;;7557654;19;20014;-71
2023/05/14 12:49:13;;;;;;;9.27;6.97;;;18.50;90.80;;;;;;7572496;19;20019;-72
2023/05/14 12:51:45;;;;;;;10.20;7.17;;;18.40;88.70;;;;;;7573248;19;20025;-71
2023/05/14 12:54:18;;;;;;;9.20;6.80;;;18.50;90.10;;;;;;7582922;19;20668;-71
2023/05/14 12:56:50;;;;;;;8.18;6.72;;;18.60;88.20;;;;;;7570466;19;20007;-71
2023/05/14 12:59:23;;;;;;;11.82;8.15;;;18.60;88.50;;;;;;7551969;19;20014;-71